Andesborg — PCLC — position and weather

sailwx.info

Track history (hours):
 
Tides and Currents Weather Stations Pressure Air Temp Water Temp Dewpoint Dewpoint Depression Visibility Wind Speed Wind Dir Waves Ship Positions

Andesborg

Last reported at 2016-Jan-16 03:21 UTC. Time now 2016-Feb-14 08:06 UTC.
Position N 50°30' W 000°10'.
Warning: this ship's position is 29 days out of date.

Length 143 m; draft 8 m.

Type: Ship. MMSI: 246797000.

Date/timePositionNaut miles runAvg speedWind from/ knotsBaromVisibWave heightAir tempDewpointWater temp
2016-Jan-16 03:21N 50°30' W 000°10'1011.8
2016-Jan-16 02:32N 50°32' E 000°05'1111.1
2016-Jan-16 01:33N 50°35' E 000°21'1010.5
2016-Jan-16 00:33N 50°39' E 000°37'1211.7
2016-Jan-15 23:34N 50°46' E 000°52'1413.5
2016-Jan-15 22:32N 50°54' E 001°09'1414.3
2016-Jan-15 21:33N 51°03' E 001°26'1313.2
2016-Jan-15 20:33N 51°12' E 001°42'1212.0
2016-Jan-15 19:34N 51°22' E 001°52'1110.6
2016-Jan-15 18:33N 51°31' E 002°02'1010.2
2016-Jan-15 17:33N 51°39' E 002°12'1010.0
2016-Jan-15 16:32N 51°46' E 002°23'4711.7
2016-Jan-15 12:30N 52°26' E 003°04'17 7.9
2016-Jan-15 10:24N 52°41' E 002°53'3 3.3
2016-Jan-15 09:32N 52°40' E 002°58'48 5.4
2016-Jan-15 00:30N 53°03' E 004°09'1212.1
2016-Jan-14 23:32N 53°11' E 004°23'5111.5
2016-Jan-14 19:06N 53°58' E 004°54'611.5
2016-Jan-14 18:33N 54°04' E 004°59'1212.0
2016-Jan-14 17:33N 54°15' E 005°07'26111.3
2016-Jan-13 18:27N 57°43' E 009°49'1212.6
2016-Jan-13 17:32N 57°47' E 010°10'1313.6
2016-Jan-13 16:33N 57°49' E 010°34'9 9.3
2016-Jan-13 15:33N 57°41' E 010°42'1 1.3
2016-Jan-13 14:26N 57°40' E 010°40'0 0.0
2016-Jan-13 13:05N 57°40' E 010°40'0 0.0
2016-Jan-13 12:17N 57°40' E 010°40'0 0.1
2016-Jan-13 11:33N 57°40' E 010°39'7 7.1
2016-Jan-13 10:34N 57°38' E 010°51'1313.2
2016-Jan-13 09:33N 57°31' E 011°13'1211.8
2016-Jan-13 08:34N 57°23' E 011°29'1313.0
2016-Jan-13 07:34N 57°11' E 011°37'11210.9
2016-Jan-12 21:15N 55°21' E 011°02'912.3
2016-Jan-12 20:33N 55°12' E 011°06'1312.7
2016-Jan-12 19:33N 54°60' E 011°01'1211.9
2016-Jan-12 18:33N 54°49' E 010°52'1110.8
2016-Jan-12 17:33N 54°39' E 011°00'1312.6
2016-Jan-12 16:33N 54°33' E 011°19'1212.4
2016-Jan-12 15:33N 54°28' E 011°39'1211.8
2016-Jan-12 14:33N 54°26' E 011°59'1010.1
2016-Jan-12 13:33N 54°33' E 012°12'5312.4
2016-Jan-12 09:17N 54°58' E 013°33'912.8
2016-Jan-12 08:33N 55°01' E 013°49'1212.4
2016-Jan-12 07:33N 55°06' E 014°08'1312.7
2016-Jan-12 06:33N 55°16' E 014°22'1312.7
2016-Jan-12 05:33N 55°26' E 014°36'1312.6
2016-Jan-12 04:33N 55°32' E 014°55'1312.6
2016-Jan-12 03:33N 55°39' E 015°14'34511.4
2016-Jan-10 21:16N 59°35' E 023°04'1012.9
2016-Jan-10 20:27N 59°37' E 023°23'1213.1
2016-Jan-10 19:33N 59°40' E 023°46'  
Track history (hours):
 
Tides and Currents Weather Stations Pressure Air Temp Water Temp Dewpoint Dewpoint Depression Visibility Wind Speed Wind Dir Waves Ship Positions

Andesborg

Last reported at 2016-Jan-16 03:21 UTC. Time now 2016-Feb-14 08:06 UTC.
Position N 50°30' W 000°10'.
Warning: this ship's position is 29 days out of date.

Length 143 m; draft 8 m.

Type: Ship. MMSI: 246797000.

Date/timePositionNaut miles runAvg speedWind from/ knotsBaromVisibWave heightAir tempDewpointWater temp
2016-Jan-16 03:21N 50°30' W 000°10'1011.8
2016-Jan-16 02:32N 50°32' E 000°05'1111.1
2016-Jan-16 01:33N 50°35' E 000°21'1010.5
2016-Jan-16 00:33N 50°39' E 000°37'1211.7
2016-Jan-15 23:34N 50°46' E 000°52'1413.5
2016-Jan-15 22:32N 50°54' E 001°09'1414.3
2016-Jan-15 21:33N 51°03' E 001°26'1313.2
2016-Jan-15 20:33N 51°12' E 001°42'1212.0
2016-Jan-15 19:34N 51°22' E 001°52'1110.6
2016-Jan-15 18:33N 51°31' E 002°02'1010.2
2016-Jan-15 17:33N 51°39' E 002°12'1010.0
2016-Jan-15 16:32N 51°46' E 002°23'4711.7
2016-Jan-15 12:30N 52°26' E 003°04'17 7.9
2016-Jan-15 10:24N 52°41' E 002°53'3 3.3
2016-Jan-15 09:32N 52°40' E 002°58'48 5.4
2016-Jan-15 00:30N 53°03' E 004°09'1212.1
2016-Jan-14 23:32N 53°11' E 004°23'5111.5
2016-Jan-14 19:06N 53°58' E 004°54'611.5
2016-Jan-14 18:33N 54°04' E 004°59'1212.0
2016-Jan-14 17:33N 54°15' E 005°07'26111.3
2016-Jan-13 18:27N 57°43' E 009°49'1212.6
2016-Jan-13 17:32N 57°47' E 010°10'1313.6
2016-Jan-13 16:33N 57°49' E 010°34'9 9.3
2016-Jan-13 15:33N 57°41' E 010°42'1 1.3
2016-Jan-13 14:26N 57°40' E 010°40'0 0.0
2016-Jan-13 13:05N 57°40' E 010°40'0 0.0
2016-Jan-13 12:17N 57°40' E 010°40'0 0.1
2016-Jan-13 11:33N 57°40' E 010°39'7 7.1
2016-Jan-13 10:34N 57°38' E 010°51'1313.2
2016-Jan-13 09:33N 57°31' E 011°13'1211.8
2016-Jan-13 08:34N 57°23' E 011°29'1313.0
2016-Jan-13 07:34N 57°11' E 011°37'11210.9
2016-Jan-12 21:15N 55°21' E 011°02'912.3
2016-Jan-12 20:33N 55°12' E 011°06'1312.7
2016-Jan-12 19:33N 54°60' E 011°01'1211.9
2016-Jan-12 18:33N 54°49' E 010°52'1110.8
2016-Jan-12 17:33N 54°39' E 011°00'1312.6
2016-Jan-12 16:33N 54°33' E 011°19'1212.4
2016-Jan-12 15:33N 54°28' E 011°39'1211.8
2016-Jan-12 14:33N 54°26' E 011°59'1010.1
2016-Jan-12 13:33N 54°33' E 012°12'5312.4
2016-Jan-12 09:17N 54°58' E 013°33'912.8
2016-Jan-12 08:33N 55°01' E 013°49'1212.4
2016-Jan-12 07:33N 55°06' E 014°08'1312.7
2016-Jan-12 06:33N 55°16' E 014°22'1312.7
2016-Jan-12 05:33N 55°26' E 014°36'1312.6
2016-Jan-12 04:33N 55°32' E 014°55'1312.6
2016-Jan-12 03:33N 55°39' E 015°14'34511.4
2016-Jan-10 21:16N 59°35' E 023°04'1012.9
2016-Jan-10 20:27N 59°37' E 023°23'1213.1
2016-Jan-10 19:33N 59°40' E 023°46'  

Dump ship's entire track history